createdAt,value
2023-05-24T00:01:25.648Z,70.14
2023-05-24T00:03:59.247Z,70.52
2023-05-24T00:06:28.028Z,70.24
2023-05-24T00:08:56.168Z,70.79
2023-05-24T00:11:23.658Z,70.71
2023-05-24T00:13:51.104Z,70.56
2023-05-24T00:16:18.735Z,70.88
2023-05-24T00:18:47.175Z,70.50
2023-05-24T00:21:16.373Z,70.22
2023-05-24T00:23:44.077Z,70.25
2023-05-24T00:26:11.720Z,69.93
2023-05-24T00:28:41.282Z,70.59
2023-05-24T00:31:08.864Z,69.84
2023-05-24T00:33:36.273Z,69.55
2023-05-24T00:36:03.993Z,69.44
2023-05-24T00:38:32.903Z,68.97
2023-05-24T00:41:01.387Z,69.55
2023-05-24T00:43:28.901Z,69.45
2023-05-24T00:46:15.178Z,69.65
2023-05-24T00:48:43.387Z,69.93
2023-05-24T00:51:11.714Z,69.57
2023-05-24T00:53:41.387Z,69.03
2023-05-24T00:56:09.311Z,69.25
2023-05-24T00:58:37.060Z,69.73
2023-05-24T01:01:05.055Z,69.53
2023-05-24T01:03:34.240Z,70.29
2023-05-24T01:06:06.044Z,70.16
2023-05-24T01:08:56.209Z,69.54
2023-05-24T01:11:35.517Z,69.82
2023-05-24T01:14:14.309Z,69.26
2023-05-24T01:16:51.629Z,69.43
2023-05-24T01:19:48.906Z,69.64
2023-05-24T01:22:50.049Z,69.34
2023-05-24T01:25:29.565Z,69.36
2023-05-24T01:27:59.772Z,69.89
2023-05-24T01:30:28.745Z,69.86
2023-05-24T01:32:57.334Z,69.41
2023-05-24T01:35:24.753Z,69.14
2023-05-24T01:37:52.251Z,69.44
2023-05-24T01:40:19.964Z,70.02
2023-05-24T01:42:56.550Z,69.92
2023-05-24T01:45:33.898Z,69.66
2023-05-24T01:48:09.029Z,69.80
2023-05-24T01:50:42.571Z,70.14
2023-05-24T01:53:15.058Z,70.53
2023-05-24T01:55:44.955Z,69.97
2023-05-24T01:58:13.865Z,70.01
2023-05-24T02:00:44.569Z,70.88
2023-05-24T02:03:14.198Z,69.81
2023-05-24T02:05:41.765Z,69.77
2023-05-24T02:08:09.292Z,70.45
2023-05-24T02:10:39.447Z,70.78
2023-05-24T02:13:07.818Z,70.78
2023-05-24T02:15:35.807Z,70.87
2023-05-24T02:18:07.978Z,71.06
2023-05-24T02:20:38.647Z,70.72
2023-05-24T02:23:06.438Z,70.47
2023-05-24T02:25:33.867Z,71.31
2023-05-24T02:28:01.592Z,70.14
2023-05-24T02:30:29.298Z,70.88
2023-05-24T02:32:57.289Z,70.58
2023-05-24T02:35:26.678Z,70.73
2023-05-24T02:37:54.100Z,70.59
2023-05-24T02:40:21.493Z,70.16
2023-05-24T02:42:49.196Z,70.69
2023-05-24T02:45:16.667Z,70.06
2023-05-24T02:47:45.365Z,70.13
2023-05-24T02:50:13.018Z,70.46
2023-05-24T02:52:41.908Z,70.92
2023-05-24T02:55:10.114Z,70.34
2023-05-24T02:57:38.322Z,70.81
2023-05-24T03:00:09.514Z,70.83
2023-05-24T03:02:41.111Z,70.90
2023-05-24T03:05:09.244Z,70.58
2023-05-24T03:07:36.764Z,70.53
2023-05-24T03:10:06.733Z,70.96
2023-05-24T03:12:34.378Z,70.87
2023-05-24T03:15:02.548Z,71.12
2023-05-24T03:17:31.717Z,71.38
2023-05-24T03:19:59.268Z,71.99
2023-05-24T03:22:26.768Z,71.25
2023-05-24T03:24:54.322Z,71.44
2023-05-24T03:27:23.234Z,70.88
2023-05-24T03:29:51.137Z,71.16
2023-05-24T03:32:21.163Z,70.64
2023-05-24T03:34:48.880Z,71.56
2023-05-24T03:37:16.662Z,71.15
2023-05-24T03:39:45.274Z,70.75
2023-05-24T03:42:41.090Z,70.60
2023-05-24T03:45:10.370Z,70.34
2023-05-24T03:47:38.885Z,71.21
2023-05-24T03:50:07.655Z,70.93
2023-05-24T03:52:35.593Z,71.19
2023-05-24T03:55:05.153Z,70.07
2023-05-24T03:57:32.697Z,71.28
2023-05-24T04:00:01.725Z,71.14
2023-05-24T04:02:30.557Z,71.00
2023-05-24T04:04:58.155Z,71.53
2023-05-24T04:07:25.639Z,71.96
2023-05-24T04:09:53.145Z,72.42
2023-05-24T04:12:20.592Z,71.51
2023-05-24T04:14:48.001Z,70.99
2023-05-24T04:17:17.098Z,72.09
2023-05-24T04:19:46.762Z,71.61
2023-05-24T04:22:14.260Z,71.66
2023-05-24T04:24:41.793Z,71.73
2023-05-24T04:27:10.523Z,71.81
2023-05-24T04:29:40.169Z,71.75
2023-05-24T04:32:10.157Z,71.30
2023-05-24T04:34:42.704Z,72.01
2023-05-24T04:37:10.827Z,71.95
2023-05-24T04:39:38.493Z,71.98
2023-05-24T04:42:07.190Z,72.00
2023-05-24T04:44:34.725Z,71.67
2023-05-24T04:47:03.918Z,71.71
2023-05-24T04:49:31.532Z,71.39
2023-05-24T04:52:00.299Z,70.66
2023-05-24T04:54:27.777Z,71.41
2023-05-24T04:56:55.309Z,71.08
2023-05-24T04:59:22.894Z,70.73
2023-05-24T05:01:50.483Z,70.48
2023-05-24T05:04:18.008Z,70.68
2023-05-24T05:06:45.538Z,71.33
2023-05-24T05:09:15.810Z,71.47
2023-05-24T05:11:43.338Z,70.98
2023-05-24T05:14:11.633Z,71.00
2023-05-24T05:16:39.514Z,70.95
2023-05-24T05:19:07.212Z,70.52
2023-05-24T05:21:35.030Z,70.47
2023-05-24T05:24:04.118Z,70.52
2023-05-24T05:26:32.983Z,70.27
2023-05-24T05:29:00.578Z,70.99
2023-05-24T05:31:29.398Z,70.46
2023-05-24T05:33:56.848Z,70.60
2023-05-24T05:36:24.473Z,70.96
2023-05-24T05:38:52.128Z,70.74
2023-05-24T05:41:19.644Z,71.75
2023-05-24T05:43:48.403Z,71.56
2023-05-24T05:46:16.225Z,71.02
2023-05-24T05:48:46.186Z,70.34
2023-05-24T05:51:14.062Z,69.67
2023-05-24T05:53:41.550Z,69.77
2023-05-24T05:56:09.039Z,70.27
2023-05-24T05:58:38.514Z,69.24
2023-05-24T06:01:07.240Z,69.00
2023-05-24T06:03:34.874Z,68.86
2023-05-24T06:06:02.368Z,69.01
2023-05-24T06:08:34.837Z,69.22
2023-05-24T06:11:02.430Z,69.16
2023-05-24T06:13:31.350Z,69.04
2023-05-24T06:15:59.080Z,67.84
2023-05-24T06:18:30.549Z,68.54
2023-05-24T06:20:58.306Z,67.81
2023-05-24T06:23:25.919Z,67.38
2023-05-24T06:25:53.434Z,68.73
2023-05-24T06:28:20.852Z,67.21
2023-05-24T06:30:48.365Z,67.51
2023-05-24T06:33:16.149Z,67.57
2023-05-24T06:35:44.978Z,66.61
2023-05-24T06:38:12.453Z,66.97
2023-05-24T06:40:40.280Z,67.43
2023-05-24T06:43:08.051Z,66.46
2023-05-24T06:45:37.267Z,64.76
2023-05-24T06:48:05.636Z,64.39
2023-05-24T06:50:33.354Z,65.72
2023-05-24T06:53:02.985Z,64.35
2023-05-24T06:55:30.350Z,65.50
2023-05-24T06:57:57.861Z,64.59
2023-05-24T07:00:25.483Z,65.35
2023-05-24T07:02:53.252Z,66.95
2023-05-24T07:05:22.359Z,64.69
2023-05-24T07:10:42.323Z,64.60
2023-05-24T07:13:09.907Z,66.31
2023-05-24T07:15:37.330Z,65.05
2023-05-24T07:18:05.027Z,64.56
2023-05-24T07:20:32.658Z,65.80
2023-05-24T07:23:01.188Z,64.08
2023-05-24T07:25:28.787Z,64.21
2023-05-24T07:27:57.673Z,63.89
2023-05-24T07:30:32.278Z,62.94
2023-05-24T07:33:01.802Z,62.95
2023-05-24T07:35:29.617Z,62.98
2023-05-24T07:37:57.240Z,63.00
2023-05-24T07:40:25.178Z,61.70
2023-05-24T07:42:52.626Z,62.29
2023-05-24T07:45:21.979Z,61.10
2023-05-24T07:47:49.433Z,60.79
2023-05-24T07:50:17.661Z,61.86
2023-05-24T07:52:45.474Z,61.86
2023-05-24T07:55:12.934Z,62.12
2023-05-24T07:57:40.438Z,62.34
2023-05-24T08:00:14.219Z,62.54
2023-05-24T08:02:44.239Z,61.08
2023-05-24T08:05:12.826Z,61.02
2023-05-24T08:07:41.832Z,61.63
2023-05-24T08:10:14.103Z,62.32
2023-05-24T08:12:42.459Z,62.55
2023-05-24T08:15:10.819Z,62.75
2023-05-24T08:17:38.806Z,62.95
2023-05-24T08:20:15.928Z,62.30
2023-05-24T08:22:43.955Z,62.95
2023-05-24T08:25:11.746Z,61.84
2023-05-24T08:27:39.288Z,63.26
2023-05-24T08:30:08.383Z,62.76
2023-05-24T08:32:36.425Z,62.91
2023-05-24T08:35:19.103Z,63.35
2023-05-24T08:37:49.919Z,62.03
2023-05-24T08:40:18.023Z,62.16
2023-05-24T08:42:46.652Z,62.98
2023-05-24T08:45:16.226Z,63.40
2023-05-24T08:47:44.052Z,62.25
2023-05-24T08:50:12.761Z,61.94
2023-05-24T08:52:41.838Z,61.11
2023-05-24T08:55:11.667Z,61.07
2023-05-24T08:57:41.406Z,59.01
2023-05-24T09:00:14.040Z,60.42
2023-05-24T09:02:43.580Z,59.88
2023-05-24T09:05:14.429Z,59.61
2023-05-24T09:07:46.468Z,60.25
2023-05-24T09:10:15.864Z,58.57
2023-05-24T09:12:45.962Z,58.97
2023-05-24T09:15:13.470Z,59.08
2023-05-24T09:17:41.119Z,59.47
2023-05-24T09:20:10.264Z,60.35
2023-05-24T09:22:41.010Z,60.61
2023-05-24T09:25:11.337Z,59.18
2023-05-24T09:27:40.259Z,58.27
2023-05-24T09:30:10.143Z,57.86
2023-05-24T09:32:38.052Z,57.29
2023-05-24T09:35:09.400Z,57.82
2023-05-24T09:37:38.872Z,58.09
2023-05-24T09:40:17.328Z,57.25
2023-05-24T09:42:46.533Z,55.71
2023-05-24T09:45:14.805Z,55.14
2023-05-24T09:47:45.174Z,56.28
2023-05-24T09:50:15.451Z,57.80
2023-05-24T09:52:43.492Z,57.72
2023-05-24T09:55:15.320Z,55.92
2023-05-24T09:57:43.897Z,55.74
2023-05-24T10:00:16.590Z,56.72
2023-05-24T10:02:52.937Z,56.47
2023-05-24T10:05:21.698Z,53.94
2023-05-24T10:07:49.414Z,55.17
2023-05-24T10:10:16.888Z,54.61
2023-05-24T10:12:46.985Z,56.24
2023-05-24T10:15:16.015Z,54.31
2023-05-24T10:17:43.536Z,54.93
2023-05-24T10:20:12.598Z,55.66
2023-05-24T10:22:44.714Z,56.68
2023-05-24T10:25:18.136Z,55.89
2023-05-24T10:27:46.621Z,57.84
2023-05-24T10:30:24.700Z,56.03
2023-05-24T10:32:54.125Z,56.79
2023-05-24T10:35:23.184Z,56.49
2023-05-24T10:37:51.208Z,56.45
2023-05-24T10:40:22.888Z,58.80
2023-05-24T10:42:51.702Z,57.79
2023-05-24T10:45:36.370Z,58.72
2023-05-24T10:48:40.462Z,57.42
2023-05-24T10:51:34.632Z,58.17
2023-05-24T10:54:13.711Z,57.65
2023-05-24T10:56:43.158Z,58.88
2023-05-24T10:59:22.948Z,59.54
2023-05-24T11:01:57.671Z,59.01
2023-05-24T11:04:26.408Z,58.97
2023-05-24T11:07:01.546Z,61.17
2023-05-24T11:09:29.810Z,59.02
2023-05-24T11:12:00.428Z,59.67
2023-05-24T11:14:29.638Z,59.32
2023-05-24T11:17:00.268Z,60.52
2023-05-24T11:19:34.145Z,58.10
2023-05-24T11:22:04.020Z,58.58
2023-05-24T11:24:32.472Z,58.29
2023-05-24T11:27:02.432Z,59.06
2023-05-24T11:29:30.434Z,59.07
2023-05-24T11:32:10.004Z,59.10
2023-05-24T11:34:37.938Z,60.60
2023-05-24T11:37:06.053Z,59.52
2023-05-24T11:39:37.331Z,57.85
2023-05-24T11:42:06.579Z,58.61
2023-05-24T11:44:35.288Z,57.70
2023-05-24T11:47:07.296Z,57.11
2023-05-24T11:49:35.512Z,57.30
2023-05-24T11:52:03.202Z,59.75
2023-05-24T11:54:33.358Z,57.69
2023-05-24T11:57:02.018Z,56.90
2023-05-24T11:59:30.183Z,57.14
2023-05-24T12:02:00.347Z,55.69
2023-05-24T12:04:30.503Z,57.09
2023-05-24T12:06:58.418Z,56.58
2023-05-24T12:09:26.502Z,55.97
2023-05-24T12:11:54.940Z,56.44
2023-05-24T12:14:26.242Z,56.21
2023-05-24T12:16:58.390Z,58.43
2023-05-24T12:19:33.761Z,54.60
2023-05-24T12:22:08.221Z,52.61
2023-05-24T12:24:37.593Z,53.36
2023-05-24T12:27:07.274Z,52.44
2023-05-24T12:29:36.467Z,53.78
2023-05-24T12:32:04.726Z,51.92
2023-05-24T12:34:32.455Z,51.28
2023-05-24T12:36:59.973Z,53.25
2023-05-24T12:39:31.938Z,50.08
2023-05-24T12:42:01.762Z,52.31
2023-05-24T12:44:31.642Z,49.96
2023-05-24T12:46:59.925Z,48.53
2023-05-24T12:49:27.580Z,47.10
2023-05-24T12:51:56.765Z,46.43
2023-05-24T12:54:26.249Z,45.18
2023-05-24T12:56:57.555Z,43.99
2023-05-24T12:59:25.947Z,42.63
2023-05-24T13:01:53.857Z,43.58
2023-05-24T13:04:23.157Z,43.72
2023-05-24T13:06:50.764Z,44.81
2023-05-24T13:09:19.163Z,47.13
2023-05-24T13:11:47.314Z,44.75
2023-05-24T13:14:16.890Z,44.32
2023-05-24T13:16:47.948Z,41.14
2023-05-24T13:19:15.586Z,43.08
2023-05-24T13:21:43.117Z,37.93
2023-05-24T13:24:10.669Z,40.17
2023-05-24T13:26:38.830Z,38.94
2023-05-24T13:31:38.572Z,43.56
2023-05-24T13:34:06.185Z,41.63
2023-05-24T13:36:34.670Z,35.34
2023-05-24T13:39:14.992Z,36.40
2023-05-24T13:41:44.164Z,35.46
2023-05-24T13:44:12.375Z,35.31
2023-05-24T13:46:41.432Z,35.14
2023-05-24T13:49:09.828Z,35.28
2023-05-24T13:51:37.985Z,35.34
2023-05-24T13:54:07.168Z,34.59
2023-05-24T13:56:35.756Z,35.98
2023-05-24T13:59:04.624Z,36.40
2023-05-24T14:01:32.926Z,36.37
2023-05-24T14:07:33.824Z,34.53
2023-05-24T14:10:01.523Z,37.05
2023-05-24T14:12:29.369Z,38.65
2023-05-24T14:15:00.119Z,34.54
2023-05-24T14:17:28.263Z,33.86
2023-05-24T14:19:55.886Z,36.13
2023-05-24T14:22:25.795Z,34.93
2023-05-24T14:24:54.860Z,36.58
2023-05-24T14:27:22.272Z,36.82
2023-05-24T14:29:49.824Z,34.17
2023-05-24T14:32:17.814Z,36.07
2023-05-24T14:34:45.442Z,32.35
2023-05-24T14:37:12.973Z,36.90
2023-05-24T14:39:40.477Z,35.74
2023-05-24T14:42:09.417Z,32.35
2023-05-24T14:44:36.920Z,33.16
2023-05-24T14:47:04.722Z,35.20
2023-05-24T14:49:32.103Z,34.71
2023-05-24T14:51:59.651Z,35.50
2023-05-24T14:54:27.336Z,34.98
2023-05-24T14:56:54.818Z,39.02
2023-05-24T14:59:23.682Z,37.17
2023-05-24T15:01:51.660Z,32.73
2023-05-24T15:04:19.157Z,30.91
2023-05-24T15:06:46.655Z,31.58
2023-05-24T15:09:14.309Z,32.21
2023-05-24T15:11:41.971Z,32.75
2023-05-24T15:14:09.378Z,33.04
2023-05-24T15:16:38.405Z,33.14
2023-05-24T15:19:05.976Z,32.44
2023-05-24T15:21:33.442Z,33.39
2023-05-24T15:24:00.944Z,30.02
2023-05-24T15:26:28.426Z,33.09
2023-05-24T15:28:55.850Z,30.47
2023-05-24T15:31:23.400Z,28.22
2023-05-24T15:33:52.215Z,32.15
2023-05-24T15:36:19.686Z,31.04
2023-05-24T15:38:47.143Z,27.21
2023-05-24T15:41:14.685Z,27.86
2023-05-24T15:43:46.035Z,30.62
2023-05-24T15:46:13.539Z,24.90
2023-05-24T15:48:41.153Z,24.50
2023-05-24T15:53:40.452Z,25.85
2023-05-24T15:56:08.879Z,24.41
2023-05-24T15:58:36.417Z,24.21
2023-05-24T16:01:03.983Z,25.50
2023-05-24T16:03:31.578Z,26.34
2023-05-24T16:05:59.151Z,27.09
2023-05-24T16:08:28.399Z,26.43
2023-05-24T16:10:56.373Z,26.96
2023-05-24T16:13:23.938Z,29.44
2023-05-24T16:15:51.846Z,27.33
2023-05-24T16:18:23.006Z,25.32
2023-05-24T16:20:51.648Z,26.90
2023-05-24T16:23:22.999Z,24.91
2023-05-24T16:25:52.165Z,25.12
2023-05-24T16:28:24.671Z,27.18
2023-05-24T16:30:55.617Z,27.86
2023-05-24T16:33:23.531Z,27.82
2023-05-24T16:35:55.658Z,28.40
2023-05-24T16:38:23.716Z,29.01
2023-05-24T16:40:53.754Z,31.21
2023-05-24T16:43:21.763Z,30.25
2023-05-24T16:45:49.351Z,29.59
2023-05-24T16:48:18.247Z,27.56
2023-05-24T16:50:45.830Z,26.20
2023-05-24T16:53:14.121Z,29.03
2023-05-24T16:55:41.954Z,30.97
2023-05-24T16:58:10.774Z,30.11
2023-05-24T17:03:06.449Z,31.28
2023-05-24T17:05:34.023Z,30.51
2023-05-24T17:08:01.977Z,32.46
2023-05-24T17:10:29.527Z,33.46
2023-05-24T17:12:57.022Z,32.31
2023-05-24T17:15:25.828Z,33.79
2023-05-24T17:17:55.556Z,32.66
2023-05-24T17:20:23.282Z,32.00
2023-05-24T17:22:51.069Z,34.58
2023-05-24T17:25:18.485Z,35.28
2023-05-24T17:27:45.982Z,33.45
2023-05-24T17:30:13.883Z,35.13
2023-05-24T17:32:42.879Z,35.93
2023-05-24T17:35:10.445Z,35.52
2023-05-24T17:37:38.145Z,37.84
2023-05-24T17:40:07.513Z,36.20
2023-05-24T17:42:34.947Z,37.14
2023-05-24T17:45:02.729Z,38.71
2023-05-24T17:47:30.234Z,38.01
2023-05-24T17:49:59.051Z,38.39
2023-05-24T17:52:27.399Z,39.25
2023-05-24T17:54:56.563Z,40.12
2023-05-24T17:57:24.266Z,40.31
2023-05-24T17:59:51.872Z,41.59
2023-05-24T18:02:19.425Z,41.31
2023-05-24T18:04:46.965Z,41.02
2023-05-24T18:07:16.067Z,42.20
2023-05-24T18:09:52.072Z,42.16
2023-05-24T18:12:20.343Z,43.14
2023-05-24T18:14:48.615Z,42.95
2023-05-24T18:17:15.976Z,43.74
2023-05-24T18:19:43.573Z,43.10
2023-05-24T18:22:11.041Z,43.81
2023-05-24T18:24:39.857Z,44.16
2023-05-24T18:27:07.496Z,44.48
2023-05-24T18:29:36.537Z,44.24
2023-05-24T18:32:04.348Z,43.55
2023-05-24T18:34:31.994Z,43.96
2023-05-24T18:36:59.513Z,43.04
2023-05-24T18:39:30.741Z,43.10
2023-05-24T18:41:59.524Z,43.61
2023-05-24T18:44:26.926Z,43.56
2023-05-24T18:46:56.106Z,45.09
2023-05-24T18:49:23.901Z,44.43
2023-05-24T18:51:51.256Z,46.41
2023-05-24T18:54:18.991Z,45.45
2023-05-24T18:56:46.708Z,45.27
2023-05-24T18:59:16.813Z,44.93
2023-05-24T19:01:44.567Z,45.50
2023-05-24T19:04:12.087Z,44.24
2023-05-24T19:06:39.519Z,44.88
2023-05-24T19:09:07.063Z,45.72
2023-05-24T19:11:34.468Z,45.33
2023-05-24T19:14:01.966Z,45.79
2023-05-24T19:16:30.870Z,46.79
2023-05-24T19:18:58.437Z,47.66
2023-05-24T19:21:25.943Z,47.09
2023-05-24T19:23:53.428Z,47.90
2023-05-24T19:26:20.987Z,48.99
2023-05-24T19:28:52.033Z,48.71
2023-05-24T19:31:20.172Z,48.56
2023-05-24T19:33:59.831Z,48.89
2023-05-24T19:36:30.711Z,47.43
2023-05-24T19:38:58.644Z,48.66
2023-05-24T19:41:26.833Z,48.46
2023-05-24T19:43:56.313Z,48.51
2023-05-24T19:46:24.179Z,48.43
2023-05-24T19:48:53.172Z,47.92
2023-05-24T19:51:20.816Z,47.82
2023-05-24T19:53:48.266Z,48.06
2023-05-24T19:56:15.803Z,48.94
2023-05-24T19:58:44.105Z,49.93
2023-05-24T20:01:11.680Z,48.39
2023-05-24T20:03:39.659Z,48.04
2023-05-24T20:06:08.665Z,49.28
2023-05-24T20:08:36.061Z,49.16
2023-05-24T20:11:03.925Z,49.97
2023-05-24T20:13:31.418Z,50.00
2023-05-24T20:15:59.049Z,49.92
2023-05-24T20:18:27.852Z,50.20
2023-05-24T20:20:55.314Z,50.17
2023-05-24T20:23:27.376Z,52.82
2023-05-24T20:25:55.605Z,51.15
2023-05-24T20:28:30.927Z,53.68
2023-05-24T20:30:59.554Z,51.51
2023-05-24T20:33:27.114Z,51.32
2023-05-24T20:35:54.621Z,51.43
2023-05-24T20:38:23.207Z,52.30
2023-05-24T20:40:52.107Z,52.97
2023-05-24T20:43:19.484Z,54.06
2023-05-24T20:45:47.112Z,52.84
2023-05-24T20:48:14.927Z,53.78
2023-05-24T20:50:42.564Z,52.11
2023-05-24T20:53:10.064Z,53.65
2023-05-24T20:55:37.793Z,55.08
2023-05-24T20:58:06.916Z,56.72
2023-05-24T21:00:34.649Z,53.79
2023-05-24T21:03:02.350Z,53.45
2023-05-24T21:05:29.959Z,52.90
2023-05-24T21:07:57.454Z,54.52
2023-05-24T21:10:27.805Z,53.85
2023-05-24T21:12:55.796Z,53.33
2023-05-24T21:15:25.128Z,55.58
2023-05-24T21:17:52.794Z,54.34
2023-05-24T21:20:21.063Z,56.33
2023-05-24T21:22:48.743Z,57.50
2023-05-24T21:25:16.586Z,56.34
2023-05-24T21:27:44.201Z,54.91
2023-05-24T21:30:12.869Z,55.28
2023-05-24T21:32:41.717Z,54.76
2023-05-24T21:35:09.562Z,58.07
2023-05-24T21:37:37.137Z,56.91
2023-05-24T21:40:06.201Z,54.99
2023-05-24T21:42:33.704Z,57.09
2023-05-24T21:45:01.176Z,53.63
2023-05-24T21:47:28.745Z,53.77
2023-05-24T21:49:57.643Z,55.80
2023-05-24T21:52:25.102Z,55.76
2023-05-24T21:54:52.639Z,56.18
2023-05-24T21:57:20.176Z,55.78
2023-05-24T21:59:47.773Z,57.14
2023-05-24T22:02:18.324Z,57.71
2023-05-24T22:04:46.722Z,58.46
2023-05-24T22:07:15.707Z,58.46
2023-05-24T22:09:43.221Z,59.22
2023-05-24T22:12:10.796Z,60.59
2023-05-24T22:14:38.295Z,60.50
2023-05-24T22:17:05.890Z,57.32
2023-05-24T22:22:04.789Z,58.11
2023-05-24T22:24:33.562Z,59.23
2023-05-24T22:27:01.305Z,59.29
2023-05-24T22:29:29.072Z,57.77
2023-05-24T22:31:56.646Z,58.08
2023-05-24T22:34:27.635Z,58.82
2023-05-24T22:36:55.517Z,59.34
2023-05-24T22:39:23.210Z,59.36
2023-05-24T22:41:53.369Z,58.47
2023-05-24T22:44:20.929Z,58.34
2023-05-24T22:46:54.789Z,56.96
2023-05-24T22:49:22.764Z,57.00
2023-05-24T22:51:50.901Z,55.28
2023-05-24T22:54:18.655Z,55.69
2023-05-24T22:56:46.356Z,56.82
2023-05-24T22:59:15.313Z,57.71
2023-05-24T23:01:44.643Z,56.81
2023-05-24T23:04:21.257Z,57.82
2023-05-24T23:06:52.656Z,59.25
2023-05-24T23:09:28.927Z,59.29
2023-05-24T23:11:58.431Z,58.95
2023-05-24T23:14:30.310Z,58.23
2023-05-24T23:17:02.450Z,60.86
2023-05-24T23:19:31.594Z,59.00
2023-05-24T23:21:59.078Z,58.73
2023-05-24T23:24:26.861Z,59.65
2023-05-24T23:26:55.789Z,59.46
2023-05-24T23:29:23.312Z,59.04
2023-05-24T23:31:52.469Z,58.31
2023-05-24T23:34:20.265Z,58.72
2023-05-24T23:36:47.747Z,57.86
2023-05-24T23:39:15.254Z,58.35
2023-05-24T23:41:42.757Z,58.12
2023-05-24T23:44:10.387Z,58.63
2023-05-24T23:46:39.418Z,59.08
2023-05-24T23:49:08.360Z,58.95
2023-05-24T23:51:36.034Z,58.80
2023-05-24T23:54:03.750Z,59.31
2023-05-24T23:56:31.291Z,60.07
2023-05-24T23:58:59.192Z,58.96
